createdAt,value
2018-11-03T00:01:39.004Z,6.60
2018-11-03T00:04:10.089Z,6.60
2018-11-03T00:06:41.549Z,5.83
2018-11-03T00:09:12.664Z,7.33
2018-11-03T00:11:44.460Z,7.13
2018-11-03T00:14:15.928Z,7.17
2018-11-03T00:16:48.729Z,7.20
2018-11-03T00:19:20.057Z,6.63
2018-11-03T00:21:51.597Z,6.87
2018-11-03T00:24:22.896Z,7.40
2018-11-03T00:26:54.425Z,8.63
2018-11-03T00:29:25.692Z,7.37
2018-11-03T00:31:57.608Z,8.73
2018-11-03T00:34:28.758Z,7.83
2018-11-03T00:37:00.544Z,8.67
2018-11-03T00:39:31.958Z,8.60
2018-11-03T00:42:03.473Z,7.80
2018-11-03T00:44:34.848Z,7.43
2018-11-03T00:47:07.969Z,7.33
2018-11-03T00:49:39.374Z,6.90
2018-11-03T00:52:10.885Z,7.40
2018-11-03T00:54:42.153Z,7.70
2018-11-03T00:57:13.589Z,7.50
2018-11-03T00:59:44.941Z,6.63
2018-11-03T01:02:16.910Z,7.47
2018-11-03T01:04:47.925Z,8.00
2018-11-03T01:07:19.611Z,7.07
2018-11-03T01:09:50.680Z,7.37
2018-11-03T01:12:22.272Z,7.33
2018-11-03T01:14:53.306Z,7.67
2018-11-03T01:17:25.852Z,8.50
2018-11-03T01:19:57.133Z,8.67
2018-11-03T01:22:29.275Z,8.00
2018-11-03T01:25:00.401Z,8.13
2018-11-03T01:27:31.983Z,8.40
2018-11-03T01:30:03.200Z,8.30
2018-11-03T01:32:34.739Z,9.23
2018-11-03T01:35:06.599Z,9.50
2018-11-03T01:37:38.448Z,9.27
2018-11-03T01:40:10.258Z,8.67
2018-11-03T01:42:42.166Z,8.80
2018-11-03T01:45:13.349Z,8.50
2018-11-03T01:47:45.108Z,9.30
2018-11-03T01:50:16.293Z,9.47
2018-11-03T01:52:47.724Z,9.00
2018-11-03T01:55:19.614Z,8.83
2018-11-03T01:57:51.216Z,8.93
2018-11-03T02:00:22.408Z,12.17
2018-11-03T02:02:53.981Z,8.77
2018-11-03T02:05:25.432Z,9.27
2018-11-03T02:07:57.590Z,9.97
2018-11-03T02:10:28.895Z,9.53
2018-11-03T02:13:00.474Z,8.40
2018-11-03T02:15:31.729Z,9.97
2018-11-03T02:18:04.153Z,9.40
2018-11-03T02:20:35.378Z,8.73
2018-11-03T02:23:07.168Z,8.40
2018-11-03T02:25:39.924Z,9.33
2018-11-03T02:28:11.645Z,9.33
2018-11-03T02:30:43.245Z,8.30
2018-11-03T02:33:14.748Z,9.57
2018-11-03T02:35:46.395Z,8.97
2018-11-03T02:38:18.886Z,7.30
2018-11-03T02:40:50.401Z,9.03
2018-11-03T02:43:21.824Z,9.53
2018-11-03T02:45:53.021Z,12.07
2018-11-03T02:48:26.206Z,8.30
2018-11-03T02:50:57.545Z,8.17
2018-11-03T02:53:28.765Z,7.43
2018-11-03T02:55:59.903Z,8.87
2018-11-03T02:58:31.224Z,7.70
2018-11-03T03:01:04.243Z,7.80
2018-11-03T03:03:35.661Z,8.20
2018-11-03T03:06:06.865Z,7.60
2018-11-03T03:08:38.213Z,7.73
2018-11-03T03:11:09.525Z,8.67
2018-11-03T03:13:41.592Z,7.67
2018-11-03T03:16:12.902Z,7.60
2018-11-03T03:18:44.977Z,9.23
2018-11-03T03:21:16.368Z,6.97
2018-11-03T03:23:47.860Z,9.50
2018-11-03T03:26:19.259Z,6.83
2018-11-03T03:28:50.756Z,8.17
2018-11-03T03:31:22.112Z,7.90
2018-11-03T03:33:53.397Z,7.90
2018-11-03T03:36:24.648Z,7.73
2018-11-03T03:38:56.012Z,6.90
2018-11-03T03:41:26.656Z,6.73
2018-11-03T03:43:57.573Z,6.00
2018-11-03T03:46:28.284Z,6.57
2018-11-03T03:48:59.517Z,6.30
2018-11-03T03:51:30.143Z,6.20
2018-11-03T03:54:01.821Z,6.93
2018-11-03T03:56:32.876Z,7.47
2018-11-03T03:59:04.887Z,7.70
2018-11-03T04:01:36.281Z,6.77
2018-11-03T04:04:07.796Z,6.30
2018-11-03T04:06:38.993Z,6.90
2018-11-03T04:09:11.321Z,6.93
2018-11-03T04:11:42.754Z,7.30
2018-11-03T04:14:14.190Z,7.57
2018-11-03T04:16:45.629Z,5.57
2018-11-03T04:19:18.313Z,6.23
2018-11-03T04:21:49.688Z,8.10
2018-11-03T04:24:21.844Z,7.60
2018-11-03T04:26:53.039Z,6.63
2018-11-03T04:29:24.905Z,7.80
2018-11-03T04:31:56.984Z,7.23
2018-11-03T04:34:28.781Z,8.10
2018-11-03T04:37:01.058Z,7.50
2018-11-03T04:39:32.448Z,7.40
2018-11-03T04:42:04.434Z,6.57
2018-11-03T04:44:35.994Z,6.83
2018-11-03T04:47:07.227Z,7.50
2018-11-03T04:49:38.791Z,7.67
2018-11-03T04:52:09.511Z,7.10
2018-11-03T04:54:40.605Z,7.13
2018-11-03T04:57:11.261Z,7.43
2018-11-03T04:59:42.260Z,6.90
2018-11-03T05:02:13.972Z,8.60
2018-11-03T05:04:45.916Z,5.77
2018-11-03T05:07:16.745Z,7.30
2018-11-03T05:09:48.042Z,6.30
2018-11-03T05:12:19.028Z,7.60
2018-11-03T05:14:50.678Z,7.47
2018-11-03T05:17:21.808Z,7.73
2018-11-03T05:19:54.865Z,8.90
2018-11-03T05:22:25.940Z,7.47
2018-11-03T05:24:57.693Z,9.87
2018-11-03T05:27:29.099Z,8.80
2018-11-03T05:30:00.926Z,10.13
2018-11-03T05:32:32.160Z,9.60
2018-11-03T05:35:03.522Z,10.10
2018-11-03T05:37:34.913Z,12.10
2018-11-03T05:40:06.803Z,12.77
2018-11-03T05:42:38.072Z,14.27
2018-11-03T05:45:09.865Z,13.43
2018-11-03T05:47:41.298Z,15.33
2018-11-03T05:50:12.730Z,14.23
2018-11-03T05:52:44.236Z,14.20
2018-11-03T05:55:16.240Z,14.73
2018-11-03T05:57:47.417Z,16.37
2018-11-03T06:00:19.350Z,15.93
2018-11-03T06:02:50.294Z,16.20
2018-11-03T06:05:21.883Z,12.60
2018-11-03T06:07:53.034Z,17.93
2018-11-03T06:10:24.633Z,12.00
2018-11-03T06:12:56.078Z,14.93
2018-11-03T06:15:27.597Z,14.37
2018-11-03T06:17:59.016Z,14.63
2018-11-03T06:20:32.653Z,14.87
2018-11-03T06:23:03.844Z,16.90
2018-11-03T06:25:35.565Z,16.33
2018-11-03T06:28:06.775Z,16.00
2018-11-03T06:30:38.428Z,16.83
2018-11-03T06:33:09.810Z,14.27
2018-11-03T06:35:41.373Z,16.20
2018-11-03T06:38:12.765Z,15.27
2018-11-03T06:40:44.320Z,14.83
2018-11-03T06:43:15.480Z,16.10
2018-11-03T06:45:47.260Z,15.57
2018-11-03T06:48:18.581Z,16.10
2018-11-03T06:50:50.144Z,15.70
2018-11-03T06:53:21.284Z,15.47
2018-11-03T06:55:52.868Z,14.50
2018-11-03T06:58:24.061Z,14.90
2018-11-03T07:00:55.307Z,15.23
2018-11-03T07:03:26.327Z,13.40
2018-11-03T07:05:57.861Z,13.90
2018-11-03T07:08:29.572Z,14.60
2018-11-03T07:11:00.838Z,14.43
2018-11-03T07:13:31.750Z,13.53
2018-11-03T07:16:04.672Z,12.83
2018-11-03T07:18:35.658Z,14.27
2018-11-03T07:21:08.932Z,11.60
2018-11-03T07:23:39.801Z,11.50
2018-11-03T07:26:11.057Z,13.30
2018-11-03T07:28:42.772Z,12.17
2018-11-03T07:31:13.978Z,13.57
2018-11-03T07:33:44.893Z,12.00
2018-11-03T07:36:16.206Z,13.97
2018-11-03T07:38:47.065Z,11.90
2018-11-03T07:41:18.332Z,11.97
2018-11-03T07:43:49.202Z,10.47
2018-11-03T07:46:20.732Z,11.83
2018-11-03T07:48:51.760Z,12.43
2018-11-03T07:51:22.910Z,11.33
2018-11-03T07:53:53.926Z,11.50
2018-11-03T07:56:25.746Z,10.50
2018-11-03T07:58:56.756Z,10.43
2018-11-03T08:01:28.210Z,12.43
2018-11-03T08:03:59.145Z,11.00
2018-11-03T08:06:30.400Z,10.77
2018-11-03T08:09:01.600Z,10.20
2018-11-03T08:11:32.942Z,10.57
2018-11-03T08:14:03.789Z,9.90
2018-11-03T08:16:34.925Z,10.30
2018-11-03T08:19:06.834Z,9.57
2018-11-03T08:21:38.916Z,11.00
2018-11-03T08:24:09.845Z,11.20
2018-11-03T08:26:41.281Z,11.33
2018-11-03T08:29:12.121Z,9.30
2018-11-03T08:31:44.015Z,9.20
2018-11-03T08:34:15.026Z,9.83
2018-11-03T08:36:46.007Z,8.60
2018-11-03T08:39:16.819Z,10.17
2018-11-03T08:41:48.037Z,7.87
2018-11-03T08:44:18.996Z,6.83
2018-11-03T08:46:50.376Z,8.90
2018-11-03T08:49:21.231Z,7.37
2018-11-03T08:51:52.356Z,7.10
2018-11-03T08:54:23.180Z,6.60
2018-11-03T08:56:54.383Z,8.97
2018-11-03T08:59:25.505Z,7.80
2018-11-03T09:01:57.020Z,6.80
2018-11-03T09:04:27.757Z,6.43
2018-11-03T09:06:59.041Z,7.40
2018-11-03T09:09:29.840Z,7.10
2018-11-03T09:12:01.351Z,6.37
2018-11-03T09:14:32.350Z,6.93
2018-11-03T09:17:04.093Z,6.53
2018-11-03T09:19:34.945Z,7.67
2018-11-03T09:22:07.229Z,6.13
2018-11-03T09:24:38.108Z,8.20
2018-11-03T09:27:09.301Z,9.27
2018-11-03T09:29:40.294Z,8.70
2018-11-03T09:32:11.466Z,6.50
2018-11-03T09:34:42.476Z,6.17
2018-11-03T09:37:13.669Z,6.10
2018-11-03T09:39:44.853Z,9.60
2018-11-03T09:42:16.044Z,8.47
2018-11-03T09:44:46.854Z,8.13
2018-11-03T09:47:17.943Z,7.97
2018-11-03T09:49:48.895Z,7.50
2018-11-03T09:52:20.123Z,8.67
2018-11-03T09:54:50.961Z,9.20
2018-11-03T09:57:22.021Z,6.80
2018-11-03T09:59:52.837Z,8.03
2018-11-03T10:02:24.224Z,6.40
2018-11-03T10:04:55.193Z,8.70
2018-11-03T10:07:27.465Z,5.90
2018-11-03T10:09:58.641Z,6.90
2018-11-03T10:12:30.196Z,7.50
2018-11-03T10:15:01.067Z,6.80
2018-11-03T10:17:32.356Z,6.43
2018-11-03T10:20:03.293Z,6.33
2018-11-03T10:22:36.664Z,7.33
2018-11-03T10:25:11.828Z,7.90
2018-11-03T10:27:43.618Z,7.03
2018-11-03T10:30:15.855Z,6.30
2018-11-03T10:32:47.388Z,5.63
2018-11-03T10:35:18.297Z,6.20
2018-11-03T10:37:49.395Z,6.87
2018-11-03T10:40:20.301Z,7.10
2018-11-03T10:42:51.629Z,6.70
2018-11-03T10:45:22.372Z,5.97
2018-11-03T10:47:53.777Z,5.87
2018-11-03T10:50:25.569Z,6.67
2018-11-03T10:52:56.945Z,5.63
2018-11-03T10:55:29.588Z,6.63
2018-11-03T10:58:00.564Z,6.43
2018-11-03T11:00:36.352Z,6.00
2018-11-03T11:03:12.337Z,7.13
2018-11-03T11:05:48.085Z,6.73
2018-11-03T11:08:24.327Z,6.20
2018-11-03T11:11:00.085Z,5.30
2018-11-03T11:13:32.545Z,5.23
2018-11-03T11:16:03.549Z,5.53
2018-11-03T11:18:34.631Z,5.50
2018-11-03T11:21:05.918Z,6.83
2018-11-03T11:23:39.169Z,6.50
2018-11-03T11:26:10.083Z,5.90
2018-11-03T11:28:41.400Z,5.77
2018-11-03T11:31:12.444Z,7.10
2018-11-03T11:33:43.848Z,6.23
2018-11-03T11:36:14.781Z,6.03
2018-11-03T11:38:47.011Z,5.00
2018-11-03T11:44:28.078Z,4.77
2018-11-03T11:46:59.353Z,5.70
2018-11-03T11:49:30.580Z,6.23
2018-11-03T11:52:01.562Z,5.90
2018-11-03T11:54:32.465Z,5.73
2018-11-03T11:57:03.161Z,5.20
2018-11-03T11:59:34.849Z,6.13
2018-11-03T12:02:06.192Z,6.90
2018-11-03T12:04:37.032Z,7.17
2018-11-03T12:07:07.795Z,5.03
2018-11-03T12:09:39.115Z,5.30
2018-11-03T12:12:09.800Z,5.00
2018-11-03T12:14:40.847Z,5.53
2018-11-03T12:17:11.654Z,5.00
2018-11-03T12:19:43.112Z,7.03
2018-11-03T12:22:13.833Z,5.20
2018-11-03T12:24:46.261Z,6.60
2018-11-03T12:27:17.177Z,6.30
2018-11-03T12:29:48.098Z,5.80
2018-11-03T12:32:18.829Z,5.43
2018-11-03T12:34:52.411Z,5.97
2018-11-03T12:37:23.494Z,5.07
2018-11-03T12:39:54.649Z,5.83
2018-11-03T12:42:25.652Z,6.53
2018-11-03T12:44:56.848Z,6.30
2018-11-03T12:47:27.771Z,5.83
2018-11-03T12:50:00.143Z,5.20
2018-11-03T12:52:32.128Z,5.30
2018-11-03T12:55:03.375Z,5.77
2018-11-03T12:57:34.384Z,5.37
2018-11-03T13:00:06.249Z,4.83
2018-11-03T13:02:37.190Z,5.47
2018-11-03T13:05:09.563Z,5.10
2018-11-03T13:07:41.614Z,5.80
2018-11-03T13:10:13.018Z,4.37
2018-11-03T13:12:44.133Z,4.43
2018-11-03T13:15:15.525Z,6.27
2018-11-03T13:17:46.491Z,4.70
2018-11-03T13:20:17.781Z,5.13
2018-11-03T13:22:48.807Z,5.90
2018-11-03T13:25:20.922Z,4.53
2018-11-03T13:27:51.725Z,4.03
2018-11-03T13:30:23.008Z,5.10
2018-11-03T13:32:54.000Z,5.27
2018-11-03T13:35:25.289Z,4.97
2018-11-03T13:37:57.242Z,6.20
2018-11-03T13:40:28.296Z,4.43
2018-11-03T13:42:59.212Z,5.37
2018-11-03T13:45:30.827Z,4.53
2018-11-03T13:48:02.862Z,3.87
2018-11-03T13:50:34.497Z,3.80
2018-11-03T13:53:05.523Z,3.97
2018-11-03T13:55:37.882Z,4.13
2018-11-03T13:58:08.946Z,4.43
2018-11-03T14:00:40.107Z,4.13
2018-11-03T14:03:10.865Z,4.83
2018-11-03T14:05:42.141Z,3.80
2018-11-03T14:08:13.645Z,4.07
2018-11-03T14:10:44.956Z,4.27
2018-11-03T14:13:15.888Z,5.50
2018-11-03T14:15:47.341Z,8.20
2018-11-03T14:18:18.382Z,6.67
2018-11-03T14:20:49.595Z,6.60
2018-11-03T14:23:20.640Z,7.13
2018-11-03T14:25:53.297Z,8.20
2018-11-03T14:28:24.520Z,6.67
2018-11-03T14:30:55.634Z,7.97
2018-11-03T14:33:26.594Z,9.20
2018-11-03T14:35:57.874Z,7.03
2018-11-03T14:38:28.797Z,7.83
2018-11-03T14:40:59.865Z,7.20
2018-11-03T14:43:30.800Z,6.93
2018-11-03T14:46:02.182Z,6.37
2018-11-03T14:48:33.132Z,5.97
2018-11-03T14:51:04.929Z,6.40
2018-11-03T14:53:35.938Z,6.80
2018-11-03T14:56:07.222Z,6.40
2018-11-03T14:58:38.160Z,6.20
2018-11-03T15:01:09.382Z,6.53
2018-11-03T15:03:41.079Z,7.20
2018-11-03T15:06:12.384Z,6.30
2018-11-03T15:08:43.375Z,5.53
2018-11-03T15:11:15.284Z,5.97
2018-11-03T15:13:46.329Z,5.47
2018-11-03T15:16:17.875Z,5.63
2018-11-03T15:18:56.293Z,7.50
2018-11-03T15:21:28.663Z,7.23
2018-11-03T15:23:59.660Z,6.13
2018-11-03T15:26:32.571Z,5.60
2018-11-03T15:29:03.667Z,5.87
2018-11-03T15:31:35.527Z,8.70
2018-11-03T15:34:07.420Z,6.43
2018-11-03T15:36:40.821Z,5.47
2018-11-03T15:39:12.622Z,5.03
2018-11-03T15:41:44.420Z,5.00
2018-11-03T15:44:16.340Z,4.60
2018-11-03T15:46:49.122Z,5.07
2018-11-03T15:49:21.117Z,6.47
2018-11-03T15:51:52.371Z,4.53
2018-11-03T15:54:24.104Z,4.70
2018-11-03T15:56:55.099Z,5.00
2018-11-03T15:59:26.067Z,4.80
2018-11-03T16:01:58.061Z,3.70
2018-11-03T16:04:29.520Z,4.33
2018-11-03T16:07:01.221Z,4.50
2018-11-03T16:09:32.364Z,4.20
2018-11-03T16:12:04.132Z,3.27
2018-11-03T16:14:35.484Z,3.00
2018-11-03T16:17:07.335Z,3.33
2018-11-03T16:19:38.725Z,4.23
2018-11-03T16:22:10.300Z,3.97
2018-11-03T16:24:41.669Z,3.90
2018-11-03T16:27:14.548Z,3.50
2018-11-03T16:29:45.816Z,4.13
2018-11-03T16:32:17.452Z,4.90
2018-11-03T16:34:48.748Z,3.27
2018-11-03T16:37:20.462Z,4.20
2018-11-03T16:39:51.774Z,4.87
2018-11-03T16:42:23.454Z,4.13
2018-11-03T16:44:54.578Z,4.50
2018-11-03T16:47:27.699Z,4.20
2018-11-03T16:49:58.963Z,5.10
2018-11-03T16:52:30.714Z,4.00
2018-11-03T16:55:02.139Z,4.73
2018-11-03T16:57:33.584Z,4.07
2018-11-03T17:00:04.964Z,3.43
2018-11-03T17:02:36.764Z,4.13
2018-11-03T17:05:08.668Z,4.23
2018-11-03T17:07:40.415Z,3.10
2018-11-03T17:10:15.093Z,3.63
2018-11-03T17:12:47.641Z,3.77
2018-11-03T17:15:19.216Z,2.80
2018-11-03T17:17:50.832Z,3.30
2018-11-03T17:20:22.272Z,4.13
2018-11-03T17:22:53.875Z,3.07
2018-11-03T17:25:25.487Z,3.83
2018-11-03T17:27:58.609Z,3.57
2018-11-03T17:30:30.070Z,3.73
2018-11-03T17:33:01.999Z,4.57
2018-11-03T17:35:32.986Z,4.70
2018-11-03T17:38:04.397Z,3.90
2018-11-03T17:40:35.125Z,4.70
2018-11-03T17:43:06.366Z,4.20
2018-11-03T17:45:37.032Z,3.63
2018-11-03T17:48:08.112Z,3.07
2018-11-03T17:50:39.042Z,3.23
2018-11-03T17:53:10.300Z,3.97
2018-11-03T17:55:41.036Z,5.57
2018-11-03T17:58:12.140Z,4.40
2018-11-03T18:00:44.192Z,3.27
2018-11-03T18:03:17.518Z,4.57
2018-11-03T18:05:48.716Z,3.70
2018-11-03T18:08:22.723Z,3.57
2018-11-03T18:10:54.132Z,4.63
2018-11-03T18:13:26.128Z,5.70
2018-11-03T18:15:57.073Z,3.83
2018-11-03T18:18:29.428Z,3.63
2018-11-03T18:21:00.596Z,4.00
2018-11-03T18:23:31.508Z,3.13
2018-11-03T18:26:02.199Z,4.10
2018-11-03T18:28:35.152Z,4.33
2018-11-03T18:31:06.540Z,3.40
2018-11-03T18:33:38.182Z,4.53
2018-11-03T18:36:09.412Z,3.63
2018-11-03T18:38:41.360Z,4.00
2018-11-03T18:41:12.371Z,3.90
2018-11-03T18:43:43.819Z,3.67
2018-11-03T18:46:14.961Z,4.10
2018-11-03T18:48:46.652Z,3.23
2018-11-03T18:51:17.860Z,3.83
2018-11-03T18:53:49.613Z,3.23
2018-11-03T18:56:20.707Z,3.87
2018-11-03T18:58:52.224Z,4.07
2018-11-03T19:01:23.296Z,5.37
2018-11-03T19:03:54.968Z,4.03
2018-11-03T19:06:26.079Z,3.77
2018-11-03T19:08:57.765Z,3.93
2018-11-03T19:11:28.960Z,4.73
2018-11-03T19:14:00.604Z,3.23
2018-11-03T19:16:31.679Z,4.37
2018-11-03T19:19:03.170Z,4.10
2018-11-03T19:21:34.404Z,3.27
2018-11-03T19:24:05.768Z,4.03
2018-11-03T19:26:37.209Z,4.00
2018-11-03T19:29:09.997Z,4.30
2018-11-03T19:31:41.234Z,4.73
2018-11-03T19:34:13.250Z,4.40
2018-11-03T19:36:44.316Z,3.90
2018-11-03T19:39:15.964Z,5.33
2018-11-03T19:41:47.219Z,4.07
2018-11-03T19:44:18.579Z,4.90
2018-11-03T19:46:49.804Z,5.63
2018-11-03T19:49:21.220Z,4.10
2018-11-03T19:51:52.418Z,4.73
2018-11-03T19:54:24.284Z,5.37
2018-11-03T19:56:56.098Z,5.87
2018-11-03T19:59:27.631Z,5.13
2018-11-03T20:01:59.044Z,4.93
2018-11-03T20:04:31.171Z,5.10
2018-11-03T20:07:02.381Z,4.77
2018-11-03T20:09:33.721Z,4.10
2018-11-03T20:12:05.016Z,4.07
2018-11-03T20:14:36.731Z,3.17
2018-11-03T20:17:08.060Z,4.07
2018-11-03T20:19:39.260Z,4.17
2018-11-03T20:22:10.516Z,3.87
2018-11-03T20:24:42.517Z,4.20
2018-11-03T20:27:14.433Z,4.03
2018-11-03T20:29:47.083Z,3.63
2018-11-03T20:32:18.052Z,3.13
2018-11-03T20:34:49.548Z,4.03
2018-11-03T20:37:20.603Z,3.47
2018-11-03T20:39:52.367Z,4.30
2018-11-03T20:42:23.401Z,3.20
2018-11-03T20:44:55.040Z,4.83
2018-11-03T20:47:26.008Z,3.40
2018-11-03T20:49:57.524Z,3.57
2018-11-03T20:52:28.652Z,3.63
2018-11-03T20:54:59.749Z,3.47
2018-11-03T20:57:31.131Z,3.63
2018-11-03T21:00:06.150Z,3.23
2018-11-03T21:02:37.376Z,4.27
2018-11-03T21:05:10.900Z,4.67
2018-11-03T21:07:42.768Z,4.50
2018-11-03T21:10:14.663Z,3.83
2018-11-03T21:12:46.009Z,3.30
2018-11-03T21:15:17.312Z,3.70
2018-11-03T21:17:48.557Z,3.57
2018-11-03T21:20:20.220Z,4.63
2018-11-03T21:22:51.560Z,4.03
2018-11-03T21:25:23.042Z,4.10
2018-11-03T21:27:54.239Z,3.50
2018-11-03T21:30:26.685Z,4.70
2018-11-03T21:32:58.031Z,4.47
2018-11-03T21:35:29.547Z,4.10
2018-11-03T21:38:00.672Z,3.93
2018-11-03T21:40:32.376Z,3.83
2018-11-03T21:43:05.910Z,2.70
2018-11-03T21:45:37.299Z,3.93
2018-11-03T21:48:09.145Z,4.83
2018-11-03T21:50:40.787Z,4.57
2018-11-03T21:53:11.939Z,2.73
2018-11-03T21:55:43.498Z,3.47
2018-11-03T21:58:14.552Z,4.43
2018-11-03T22:00:46.191Z,3.63
2018-11-03T22:03:17.336Z,3.67
2018-11-03T22:05:49.117Z,3.70
2018-11-03T22:08:20.212Z,3.30
2018-11-03T22:10:52.027Z,3.80
2018-11-03T22:13:23.016Z,3.33
2018-11-03T22:15:54.769Z,3.33
2018-11-03T22:18:26.032Z,3.93
2018-11-03T22:20:57.478Z,3.60
2018-11-03T22:23:28.505Z,4.17
2018-11-03T22:26:00.176Z,4.40
2018-11-03T22:28:31.334Z,3.60
2018-11-03T22:31:04.400Z,3.30
2018-11-03T22:33:35.417Z,3.93
2018-11-03T22:36:07.612Z,4.00
2018-11-03T22:38:39.047Z,3.93
2018-11-03T22:41:10.539Z,3.00
2018-11-03T22:43:41.931Z,2.83
2018-11-03T22:46:13.268Z,3.17
2018-11-03T22:48:44.615Z,4.27
2018-11-03T22:51:17.052Z,3.80
2018-11-03T22:53:48.269Z,4.40
2018-11-03T22:56:19.869Z,3.63
2018-11-03T22:58:51.021Z,3.50
2018-11-03T23:01:22.680Z,4.30
2018-11-03T23:03:53.755Z,3.87
2018-11-03T23:06:25.336Z,3.60
2018-11-03T23:08:56.526Z,3.60
2018-11-03T23:11:28.164Z,4.80
2018-11-03T23:13:59.428Z,2.80
2018-11-03T23:16:31.073Z,3.43
2018-11-03T23:19:02.236Z,4.37
2018-11-03T23:21:34.204Z,3.27
2018-11-03T23:24:05.297Z,2.83
2018-11-03T23:26:36.519Z,3.20
2018-11-03T23:29:07.633Z,3.67
2018-11-03T23:31:40.899Z,3.70
2018-11-03T23:34:12.148Z,3.70
2018-11-03T23:36:43.669Z,3.37
2018-11-03T23:39:14.825Z,4.13
2018-11-03T23:41:46.464Z,2.90
2018-11-03T23:44:17.616Z,2.97
2018-11-03T23:46:49.074Z,3.10
2018-11-03T23:49:20.141Z,3.10
2018-11-03T23:51:51.738Z,2.70
2018-11-03T23:54:23.176Z,2.33
2018-11-03T23:56:54.952Z,2.63
2018-11-03T23:59:26.164Z,2.80
